Portada
METAR-TAF:

METAR-TAF

Aeropuertos :

Whiting_Field_Naval_Air_Station_South_Airport

Milton, Florida, Estados Unidos

latitud: 30-41-50N, longitud: 087-01-12W, altitud: 54 m

Observación

El informe se hizo hace 26 minutos, a las 17:56 UTC
Viento 10 kt del norte-noreste
Temperatura 16°C
Humedad 72%
Presión 1015 hPa
Visibilidad: 16.1 km
Cielo nuboso a una altura de 1800 ft

METAR: KNDZ 271756Z 02010KT 10SM BKN018 16/11 A2998 RMK AO2 SLP141 6//// T01560106 10156 20094 58009 PNO $

Hora: 12:22 (18:22 UTC)


TAF: falta

Observaciones y pronósticos meteorológicos de más de 4000 aeropuertos (mensajes METAR y TAF).

Los puntos amarillos y rojos representan las estaciones disponibles.

Ponga el ratón en el punto deseado para ver el nombre de la estación.

Haga clic para ver las observaciones y los pronósticos meteorológicos.

Para cambiar el mapa : haga clic en los botones verdes con una cruz de color negro para hacer un zoom, en el botón verde con un guión para alejar o en las flechas verdes para mapas adyacentes.


METAR-TAF: